Time;durP1;ratioP1;P1;durP2;ratioP2;P2;SDS_P1;SDS_P2;PMS_P1;PMS_P2;Temp;Humidity;BMP_temperature;BMP_pressure;BME280_temperature;BME280_humidity;BME280_pressure;Samples;Min_cycle;Max_cycle;Signal;HPM_P1;HPM_P2
2024/01/29 00:02:06;;;;;;;44.10;16.55;;;0.90;69.10;;;;;;4947812;28;20031;-63
2024/01/29 00:04:31;;;;;;;51.30;17.60;;;0.90;69.10;;;;;;4953062;28;20439;-62
2024/01/29 00:06:57;;;;;;;46.75;16.70;;;0.70;68.90;;;;;;4951849;28;20047;-62
2024/01/29 00:09:23;;;;;;;36.90;14.80;;;1.00;68.80;;;;;;4953182;28;20023;-61
2024/01/29 00:11:49;;;;;;;32.13;14.70;;;0.70;68.70;;;;;;4946706;28;20356;-62
2024/01/29 00:14:15;;;;;;;30.85;13.48;;;0.80;68.70;;;;;;4950915;28;20042;-62
2024/01/29 00:16:40;;;;;;;32.20;13.85;;;1.00;68.80;;;;;;4949580;28;20360;-62
2024/01/29 00:19:06;;;;;;;27.77;13.18;;;0.70;68.60;;;;;;4953199;28;20030;-63
2024/01/29 00:21:32;;;;;;;30.30;13.38;;;0.70;68.50;;;;;;4955116;28;20034;-63
2024/01/29 00:24:00;;;;;;;30.70;12.93;;;0.60;68.40;;;;;;4952951;28;20062;-62
2024/01/29 00:26:26;;;;;;;38.80;13.57;;;0.60;68.30;;;;;;4951747;28;20035;-61
2024/01/29 00:28:52;;;;;;;25.42;13.02;;;0.60;68.30;;;;;;4952898;28;20027;-60
2024/01/29 00:31:18;;;;;;;23.83;12.63;;;0.50;68.20;;;;;;4949334;28;20037;-61
2024/01/29 00:33:46;;;;;;;31.52;13.95;;;0.50;68.30;;;;;;4951522;28;20053;-61
2024/01/29 00:36:11;;;;;;;38.22;13.85;;;0.40;68.20;;;;;;4953797;28;20028;-63
2024/01/29 00:38:37;;;;;;;30.40;14.15;;;0.40;68.60;;;;;;4950411;28;20025;-61
2024/01/29 00:41:03;;;;;;;46.85;17.02;;;0.40;68.60;;;;;;4952777;28;20035;-62
2024/01/29 00:43:28;;;;;;;43.30;16.02;;;0.40;68.50;;;;;;4950073;28;20043;-62
2024/01/29 00:45:54;;;;;;;50.72;17.25;;;0.30;68.20;;;;;;4878871;28;20039;-61
2024/01/29 00:48:22;;;;;;;40.95;15.55;;;0.30;68.20;;;;;;4956254;28;20031;-62
2024/01/29 00:50:48;;;;;;;36.53;14.52;;;0.30;68.30;;;;;;4951815;28;20051;-60
2024/01/29 00:53:15;;;;;;;34.35;13.77;;;0.30;68.50;;;;;;4948073;28;20419;-62
2024/01/29 00:55:46;;;;;;;28.52;13.13;;;0.20;68.70;;;;;;4951587;28;20027;-61
2024/01/29 00:58:15;;;;;;;23.75;13.00;;;0.20;68.60;;;;;;4947907;28;20035;-61
2024/01/29 01:00:44;;;;;;;23.90;12.60;;;0.50;68.60;;;;;;4954163;28;20110;-61
2024/01/29 01:03:10;;;;;;;30.85;12.48;;;0.40;68.50;;;;;;4953591;28;20042;-62
2024/01/29 01:05:36;;;;;;;25.77;12.38;;;0.20;68.50;;;;;;4950912;28;20089;-62
2024/01/29 01:08:03;;;;;;;22.58;11.10;;;0.10;68.60;;;;;;4955136;28;20510;-62
2024/01/29 01:10:29;;;;;;;25.63;11.77;;;0.10;68.60;;;;;;4950568;28;20055;-62
2024/01/29 01:12:54;;;;;;;23.52;11.73;;;0.30;68.70;;;;;;4947667;28;20071;-62
2024/01/29 01:15:20;;;;;;;21.88;11.75;;;0.10;68.60;;;;;;4947881;28;22088;-62
2024/01/29 01:17:46;;;;;;;25.50;12.65;;;0.10;68.60;;;;;;4959601;28;20520;-62
2024/01/29 01:20:12;;;;;;;32.88;12.02;;;0.40;68.80;;;;;;4952675;28;20399;-63
2024/01/29 01:22:38;;;;;;;28.10;12.48;;;0.40;68.70;;;;;;4959695;28;20019;-61
2024/01/29 01:25:05;;;;;;;28.25;11.77;;;0.10;68.70;;;;;;4948529;28;20068;-63
2024/01/29 01:27:33;;;;;;;27.10;11.95;;;0.00;68.70;;;;;;4949195;28;20085;-61
2024/01/29 01:29:59;;;;;;;29.00;12.07;;;0.00;68.70;;;;;;4947185;28;20509;-61
2024/01/29 01:32:25;;;;;;;26.50;11.68;;;0.00;68.70;;;;;;4951271;28;20031;-62
2024/01/29 01:34:51;;;;;;;32.60;12.85;;;0.00;68.70;;;;;;4956157;28;20027;-63
2024/01/29 01:37:17;;;;;;;24.88;11.63;;;0.10;68.80;;;;;;4945653;28;20027;-62
2024/01/29 01:39:42;;;;;;;31.50;12.18;;;0.30;68.80;;;;;;4951285;28;20036;-61
2024/01/29 01:42:08;;;;;;;29.10;12.00;;;0.00;68.60;;;;;;4947269;28;20039;-61
2024/01/29 01:44:34;;;;;;;22.67;10.60;;;0.00;69.40;;;;;;4957909;28;20042;-61
2024/01/29 01:47:00;;;;;;;27.95;11.15;;;0.00;68.80;;;;;;4883894;28;20039;-62
2024/01/29 01:49:27;;;;;;;19.95;10.40;;;0.00;68.90;;;;;;4953850;28;20027;-62
2024/01/29 01:51:53;;;;;;;27.10;11.90;;;0.00;68.90;;;;;;4955004;28;20062;-61
2024/01/29 01:54:19;;;;;;;29.67;11.13;;;-0.10;68.60;;;;;;4947862;28;20038;-61
2024/01/29 01:56:47;;;;;;;26.85;10.70;;;-0.10;68.50;;;;;;4955142;28;20417;-62
2024/01/29 01:59:13;;;;;;;27.42;11.13;;;-0.10;68.30;;;;;;4953818;28;20031;-61
2024/01/29 02:01:39;;;;;;;27.27;11.18;;;0.00;68.40;;;;;;4958106;28;20023;-62
2024/01/29 02:04:05;;;;;;;25.83;11.90;;;-0.10;68.30;;;;;;4954747;28;20023;-61
2024/01/29 02:06:31;;;;;;;26.42;11.50;;;-0.10;69.00;;;;;;4957113;28;20051;-62
2024/01/29 02:08:58;;;;;;;27.70;11.55;;;-0.10;68.60;;;;;;4951389;28;20027;-62
2024/01/29 02:11:24;;;;;;;19.92;9.73;;;-0.20;68.60;;;;;;4954016;28;20085;-62
2024/01/29 02:13:50;;;;;;;19.88;9.80;;;-0.20;68.70;;;;;;4948245;28;20033;-62
2024/01/29 02:16:15;;;;;;;19.45;9.40;;;-0.20;68.60;;;;;;4932927;28;20032;-62
2024/01/29 02:18:41;;;;;;;21.23;9.93;;;-0.10;68.60;;;;;;4955278;28;20059;-62
2024/01/29 02:21:07;;;;;;;24.75;10.65;;;-0.10;68.60;;;;;;4953675;28;20047;-62
2024/01/29 02:23:33;;;;;;;23.65;10.60;;;-0.20;68.60;;;;;;4947461;28;20031;-63
2024/01/29 02:25:58;;;;;;;30.20;11.02;;;-0.20;68.80;;;;;;4949745;28;20114;-63
2024/01/29 02:28:25;;;;;;;21.35;10.02;;;-0.20;68.90;;;;;;4950867;28;20589;-62
2024/01/29 02:30:51;;;;;;;23.27;10.02;;;-0.20;68.80;;;;;;4954263;28;20458;-61
2024/01/29 02:33:17;;;;;;;21.13;9.57;;;-0.20;68.70;;;;;;4950294;28;20072;-62
2024/01/29 02:35:47;;;;;;;24.02;10.85;;;-0.20;68.60;;;;;;4951030;28;20023;-63
2024/01/29 02:38:13;;;;;;;22.20;9.85;;;-0.20;68.70;;;;;;4950174;28;20082;-61
2024/01/29 02:40:38;;;;;;;20.45;10.43;;;-0.20;68.90;;;;;;4950269;28;20486;-62
2024/01/29 02:43:04;;;;;;;22.88;10.02;;;-0.20;69.10;;;;;;4951335;28;20031;-61
2024/01/29 02:45:30;;;;;;;20.52;9.85;;;-0.20;69.10;;;;;;4948216;28;20070;-62
2024/01/29 02:47:56;;;;;;;23.80;10.50;;;-0.20;69.00;;;;;;4955390;28;20475;-62
2024/01/29 02:50:22;;;;;;;18.20;10.50;;;-0.20;68.90;;;;;;4948202;28;20038;-61
2024/01/29 02:52:48;;;;;;;20.95;10.13;;;-0.20;68.70;;;;;;4949729;28;20093;-61
2024/01/29 02:55:14;;;;;;;18.08;9.55;;;-0.20;68.70;;;;;;4948544;28;20234;-63
2024/01/29 02:57:40;;;;;;;17.33;9.73;;;-0.20;68.90;;;;;;4955093;28;20094;-61
2024/01/29 03:00:06;;;;;;;14.85;8.75;;;-0.10;69.00;;;;;;4946395;28;20510;-62
2024/01/29 03:02:32;;;;;;;17.17;9.13;;;-0.30;68.80;;;;;;4949571;28;20062;-63
2024/01/29 03:04:57;;;;;;;18.65;9.05;;;-0.30;68.80;;;;;;4948268;28;20761;-62
2024/01/29 03:07:23;;;;;;;20.25;10.05;;;-0.30;68.70;;;;;;4934097;28;20039;-61
2024/01/29 03:09:49;;;;;;;21.30;9.95;;;-0.30;68.70;;;;;;4943492;28;20058;-63
2024/01/29 03:12:14;;;;;;;18.88;9.57;;;-0.10;68.70;;;;;;4947152;28;20368;-61
2024/01/29 03:14:41;;;;;;;23.90;10.32;;;-0.30;68.50;;;;;;4950874;28;20463;-62
2024/01/29 03:17:07;;;;;;;20.05;9.48;;;-0.30;68.40;;;;;;4950111;28;20030;-61
2024/01/29 03:19:33;;;;;;;19.98;9.38;;;-0.30;68.40;;;;;;4947601;28;20042;-63
2024/01/29 03:21:58;;;;;;;18.83;9.05;;;-0.10;68.50;;;;;;4950863;28;20375;-62
2024/01/29 03:24:24;;;;;;;22.98;10.15;;;-0.10;68.60;;;;;;4949763;28;20035;-62
2024/01/29 03:26:50;;;;;;;22.45;10.13;;;-0.40;68.60;;;;;;4952108;28;20082;-62
2024/01/29 03:29:15;;;;;;;26.15;10.95;;;-0.40;68.70;;;;;;4953749;28;20078;-61
2024/01/29 03:31:41;;;;;;;21.23;9.38;;;-0.40;68.50;;;;;;4947908;28;20019;-62
2024/01/29 03:34:07;;;;;;;22.17;9.80;;;-0.40;68.40;;;;;;4948355;28;20031;-62
2024/01/29 03:36:32;;;;;;;22.75;10.55;;;-0.40;68.40;;;;;;4952985;28;20030;-61
2024/01/29 03:38:58;;;;;;;19.35;10.05;;;-0.40;68.50;;;;;;4946116;28;20053;-62
2024/01/29 03:41:23;;;;;;;21.92;9.77;;;-0.40;68.80;;;;;;4950272;28;20035;-62
2024/01/29 03:43:49;;;;;;;23.65;9.38;;;-0.40;68.90;;;;;;4942919;28;20078;-62
2024/01/29 03:46:15;;;;;;;22.52;10.20;;;-0.40;68.90;;;;;;4834802;29;20054;-63
2024/01/29 03:48:41;;;;;;;21.83;9.88;;;-0.40;69.00;;;;;;4953997;28;20086;-62
2024/01/29 03:51:06;;;;;;;19.25;9.30;;;-0.30;69.20;;;;;;4946084;28;20496;-61
2024/01/29 03:53:32;;;;;;;21.45;10.02;;;-0.30;69.20;;;;;;4953830;28;20698;-61
2024/01/29 03:55:58;;;;;;;16.88;9.20;;;-0.30;69.30;;;;;;4958879;28;20382;-60
2024/01/29 03:58:23;;;;;;;16.42;8.80;;;-0.30;69.40;;;;;;4958439;28;20065;-61
2024/01/29 04:00:49;;;;;;;16.85;8.65;;;-0.20;69.50;;;;;;4950193;28;20051;-63
2024/01/29 04:03:14;;;;;;;17.85;9.07;;;-0.10;69.70;;;;;;4954567;28;20046;-62
2024/01/29 04:05:43;;;;;;;17.63;9.07;;;-0.10;69.80;;;;;;4955039;28;20051;-62
2024/01/29 04:08:08;;;;;;;19.88;9.52;;;0.20;70.20;;;;;;4951710;28;20042;-62
2024/01/29 04:10:34;;;;;;;19.35;10.10;;;0.00;70.30;;;;;;4950173;28;20043;-62
2024/01/29 04:13:00;;;;;;;23.45;10.35;;;0.00;70.40;;;;;;4952757;28;20034;-62
2024/01/29 04:15:26;;;;;;;17.77;10.02;;;0.10;71.30;;;;;;4935730;28;20529;-62
2024/01/29 04:17:52;;;;;;;18.75;9.55;;;0.10;70.60;;;;;;4958189;28;20023;-62
2024/01/29 04:20:17;;;;;;;17.90;10.05;;;0.20;70.70;;;;;;4950094;28;20031;-63
2024/01/29 04:22:43;;;;;;;29.02;11.70;;;0.30;70.70;;;;;;4958242;28;20027;-63
2024/01/29 04:25:09;;;;;;;29.58;11.98;;;0.60;70.80;;;;;;4955566;28;20458;-61
2024/01/29 04:27:35;;;;;;;32.17;11.52;;;0.70;71.00;;;;;;4953752;28;20027;-62
2024/01/29 04:30:02;;;;;;;43.58;11.32;;;0.40;71.00;;;;;;4950369;28;20054;-61
2024/01/29 04:32:28;;;;;;;34.95;13.27;;;0.50;71.20;;;;;;4951870;28;20030;-63
2024/01/29 04:34:54;;;;;;;34.97;12.32;;;0.50;71.30;;;;;;4948646;28;20028;-62
2024/01/29 04:37:19;;;;;;;29.92;12.00;;;0.60;71.50;;;;;;4950661;28;20090;-63
2024/01/29 04:39:45;;;;;;;30.30;11.20;;;0.60;71.40;;;;;;4953577;28;20027;-62
2024/01/29 04:42:12;;;;;;;37.38;12.90;;;0.70;71.50;;;;;;4952133;28;20023;-62
2024/01/29 04:44:38;;;;;;;35.53;12.68;;;0.70;71.50;;;;;;4951487;28;20086;-62
2024/01/29 04:47:04;;;;;;;33.35;11.55;;;0.80;71.60;;;;;;4932561;28;20406;-62
2024/01/29 04:49:29;;;;;;;47.55;12.75;;;0.80;71.60;;;;;;4951542;28;20474;-62
2024/01/29 04:51:55;;;;;;;49.17;13.55;;;1.20;71.90;;;;;;4956627;28;20031;-62
2024/01/29 04:54:21;;;;;;;45.28;12.30;;;0.90;71.80;;;;;;4950303;28;20356;-62
2024/01/29 04:56:46;;;;;;;37.78;12.45;;;0.90;71.80;;;;;;4950244;28;20576;-61
2024/01/29 04:59:12;;;;;;;37.28;13.60;;;1.00;71.80;;;;;;4951010;28;20579;-61
2024/01/29 05:01:38;;;;;;;53.47;15.45;;;1.00;71.80;;;;;;4933107;28;20027;-62
2024/01/29 05:04:04;;;;;;;50.38;14.82;;;1.00;71.70;;;;;;4945790;28;20027;-63
2024/01/29 05:06:30;;;;;;;55.70;16.23;;;1.10;71.80;;;;;;4956627;28;20054;-61
2024/01/29 05:08:55;;;;;;;43.90;15.02;;;1.10;71.90;;;;;;4954366;28;20109;-63
2024/01/29 05:11:21;;;;;;;40.33;14.15;;;1.10;71.90;;;;;;4954904;28;20034;-63
2024/01/29 05:13:47;;;;;;;45.42;14.05;;;1.20;72.00;;;;;;4948931;28;20030;-63
2024/01/29 05:16:15;;;;;;;44.95;13.95;;;1.20;72.10;;;;;;4954013;28;20059;-63
2024/01/29 05:18:41;;;;;;;39.45;14.43;;;1.20;72.20;;;;;;4955993;28;20023;-62
2024/01/29 05:21:06;;;;;;;56.40;15.02;;;1.30;72.20;;;;;;4949040;28;20031;-61
2024/01/29 05:23:32;;;;;;;83.97;13.85;;;1.30;72.30;;;;;;4954731;28;20571;-62
2024/01/29 05:25:58;;;;;;;40.03;12.35;;;1.30;72.20;;;;;;4952563;28;20031;-63
2024/01/29 05:28:23;;;;;;;64.53;11.40;;;1.40;72.30;;;;;;4949667;28;20046;-62
2024/01/29 05:30:51;;;;;;;29.80;10.52;;;1.40;72.20;;;;;;4950817;28;20423;-62
2024/01/29 05:33:17;;;;;;;59.08;12.07;;;1.40;72.30;;;;;;4949647;28;20027;-62
2024/01/29 05:35:42;;;;;;;29.63;11.30;;;1.40;72.20;;;;;;4948887;28;20039;-62
2024/01/29 05:38:08;;;;;;;37.33;11.73;;;1.40;72.20;;;;;;4955820;28;20035;-62
2024/01/29 05:40:34;;;;;;;31.38;12.07;;;1.50;72.40;;;;;;4951722;28;20027;-61
2024/01/29 05:42:59;;;;;;;35.83;11.73;;;1.50;72.30;;;;;;4949333;28;20051;-62
2024/01/29 05:45:26;;;;;;;39.08;11.07;;;1.50;72.20;;;;;;4950006;28;20042;-63
2024/01/29 05:47:51;;;;;;;64.70;13.48;;;1.50;72.30;;;;;;4951898;28;20028;-62
2024/01/29 05:50:17;;;;;;;34.00;11.63;;;1.60;72.40;;;;;;4947072;28;20092;-62
2024/01/29 05:52:43;;;;;;;29.45;11.48;;;1.60;73.10;;;;;;4950841;28;20078;-63
2024/01/29 05:55:09;;;;;;;43.30;11.82;;;1.60;72.30;;;;;;4950211;28;20038;-63
2024/01/29 05:57:35;;;;;;;49.13;11.25;;;1.60;72.30;;;;;;4948094;28;20390;-62
2024/01/29 06:00:02;;;;;;;34.25;11.27;;;1.60;72.30;;;;;;4955872;28;20956;-62
2024/01/29 06:02:28;;;;;;;46.47;12.00;;;1.60;72.30;;;;;;4955282;28;20383;-63
2024/01/29 06:04:53;;;;;;;28.95;10.57;;;1.60;72.30;;;;;;4948876;28;20050;-62
2024/01/29 06:07:19;;;;;;;30.88;9.52;;;1.60;72.30;;;;;;4955199;28;20043;-61
2024/01/29 06:09:45;;;;;;;30.17;10.73;;;1.60;72.20;;;;;;4947077;28;20033;-62
2024/01/29 06:12:10;;;;;;;59.40;10.90;;;1.70;72.20;;;;;;4950864;28;20031;-62
2024/01/29 06:14:36;;;;;;;55.55;10.68;;;1.70;72.20;;;;;;4947616;28;20557;-63
2024/01/29 06:17:02;;;;;;;51.53;10.93;;;1.70;72.30;;;;;;4947707;28;20449;-63
2024/01/29 06:19:29;;;;;;;26.08;9.85;;;1.70;72.20;;;;;;4950573;28;20028;-62
2024/01/29 06:21:54;;;;;;;53.30;10.88;;;1.70;72.30;;;;;;4951636;28;20095;-62
2024/01/29 06:24:20;;;;;;;21.52;9.65;;;1.70;72.20;;;;;;4949439;28;20035;-62
2024/01/29 06:26:45;;;;;;;23.40;9.70;;;1.60;72.20;;;;;;4948623;28;20121;-61
2024/01/29 06:29:11;;;;;;;22.67;9.75;;;1.70;72.20;;;;;;4952954;28;20031;-62
2024/01/29 06:31:40;;;;;;;19.30;9.35;;;1.70;72.20;;;;;;4950123;28;20029;-62
2024/01/29 06:34:06;;;;;;;27.88;10.18;;;1.70;72.20;;;;;;4955490;28;20039;-62
2024/01/29 06:36:32;;;;;;;32.88;10.45;;;1.70;72.10;;;;;;4950419;28;20097;-62
2024/01/29 06:39:01;;;;;;;24.10;9.23;;;1.70;72.10;;;;;;4947503;28;20732;-62
2024/01/29 06:41:27;;;;;;;18.85;9.93;;;1.70;72.10;;;;;;4952002;28;20529;-63
2024/01/29 06:43:54;;;;;;;27.50;10.23;;;1.70;72.00;;;;;;4950289;28;20050;-63
2024/01/29 06:46:20;;;;;;;17.38;9.27;;;1.70;72.00;;;;;;4878129;28;20398;-62
2024/01/29 06:48:46;;;;;;;18.63;10.18;;;1.70;71.90;;;;;;4952932;28;20038;-62
2024/01/29 06:51:14;;;;;;;21.63;9.90;;;1.70;71.80;;;;;;4944886;28;20094;-63
2024/01/29 06:53:40;;;;;;;21.77;9.93;;;1.70;71.80;;;;;;4942785;28;20039;-62
2024/01/29 06:56:06;;;;;;;18.83;9.25;;;1.60;71.70;;;;;;4951607;28;20426;-61
2024/01/29 06:58:32;;;;;;;24.45;10.25;;;1.60;71.80;;;;;;4948972;28;20078;-63
2024/01/29 07:00:59;;;;;;;16.95;9.88;;;1.60;71.80;;;;;;4953797;28;20055;-62
2024/01/29 07:03:25;;;;;;;28.08;11.30;;;1.60;71.90;;;;;;4952369;28;20027;-62
2024/01/29 07:05:51;;;;;;;20.55;10.57;;;1.60;71.90;;;;;;4950711;28;20056;-63
2024/01/29 07:08:17;;;;;;;21.65;10.82;;;1.60;71.80;;;;;;4949261;28;20083;-62
2024/01/29 07:10:43;;;;;;;23.02;11.57;;;1.60;71.70;;;;;;4952337;28;20541;-63
2024/01/29 07:13:09;;;;;;;21.98;11.20;;;1.60;71.70;;;;;;4950209;28;20107;-63
2024/01/29 07:15:35;;;;;;;28.45;11.63;;;1.60;71.80;;;;;;4949451;28;20138;-63
2024/01/29 07:18:01;;;;;;;24.67;11.70;;;1.60;71.90;;;;;;4955769;28;20039;-63
2024/01/29 07:20:29;;;;;;;43.50;12.55;;;1.70;72.00;;;;;;4945140;28;20023;-63
2024/01/29 07:22:56;;;;;;;28.05;12.18;;;1.70;72.10;;;;;;4952155;28;20027;-63
2024/01/29 07:25:22;;;;;;;28.15;12.50;;;1.70;72.00;;;;;;4956045;28;20134;-64
2024/01/29 07:27:48;;;;;;;30.83;13.52;;;1.70;71.90;;;;;;4951316;28;20030;-63
2024/01/29 07:30:14;;;;;;;30.25;13.82;;;1.70;71.80;;;;;;4953135;28;20031;-63
2024/01/29 07:32:40;;;;;;;27.85;14.73;;;1.80;71.70;;;;;;4951806;28;20019;-63
2024/01/29 07:35:07;;;;;;;33.90;16.10;;;1.80;72.40;;;;;;4955456;28;20379;-63
2024/01/29 07:37:32;;;;;;;32.70;16.63;;;1.80;71.70;;;;;;4955208;28;20051;-63
2024/01/29 07:39:58;;;;;;;32.53;15.32;;;1.80;71.70;;;;;;4948815;28;20475;-62
2024/01/29 07:42:24;;;;;;;29.73;14.45;;;1.70;71.60;;;;;;4958529;28;20079;-64
2024/01/29 07:44:53;;;;;;;29.65;16.10;;;1.80;71.70;;;;;;4870141;28;20977;-63
2024/01/29 07:47:20;;;;;;;34.95;15.75;;;1.80;71.70;;;;;;4951235;28;20059;-63
2024/01/29 07:49:45;;;;;;;31.80;16.52;;;1.80;71.70;;;;;;4949627;28;20494;-64
2024/01/29 07:52:11;;;;;;;30.58;16.35;;;1.80;71.70;;;;;;4937039;28;20114;-64
2024/01/29 07:54:36;;;;;;;35.53;18.42;;;1.90;71.60;;;;;;4954155;28;20109;-63
2024/01/29 07:57:03;;;;;;;33.25;17.92;;;1.90;71.40;;;;;;4953654;28;20126;-62
2024/01/29 07:59:29;;;;;;;31.75;16.98;;;1.90;71.30;;;;;;4952875;28;20551;-63
2024/01/29 08:01:55;;;;;;;31.05;17.02;;;1.80;71.30;;;;;;4947407;28;20110;-63
2024/01/29 08:04:21;;;;;;;28.00;16.15;;;1.90;71.40;;;;;;4950175;28;20509;-64
2024/01/29 08:06:47;;;;;;;30.30;16.75;;;1.90;71.50;;;;;;4949600;28;20051;-63
2024/01/29 08:09:12;;;;;;;36.08;18.40;;;1.90;71.50;;;;;;4937837;28;20054;-64
2024/01/29 08:11:39;;;;;;;34.45;18.33;;;2.00;71.60;;;;;;4956590;28;20038;-63
2024/01/29 08:14:05;;;;;;;35.78;19.02;;;2.00;71.60;;;;;;4952495;28;20057;-65
2024/01/29 08:16:31;;;;;;;33.13;16.95;;;2.10;71.60;;;;;;4953558;28;20020;-63
2024/01/29 08:18:57;;;;;;;32.42;15.95;;;2.10;71.70;;;;;;4935728;28;20148;-63
2024/01/29 08:21:22;;;;;;;28.50;16.00;;;2.20;71.90;;;;;;4949229;28;20035;-64
2024/01/29 08:23:48;;;;;;;31.40;15.45;;;2.20;71.90;;;;;;4950871;28;20030;-62
2024/01/29 08:26:14;;;;;;;26.58;14.95;;;2.30;72.00;;;;;;4950711;28;20070;-64
2024/01/29 08:28:39;;;;;;;30.08;15.85;;;2.40;72.00;;;;;;4954408;28;20030;-64
2024/01/29 08:31:06;;;;;;;28.52;15.85;;;2.50;71.90;;;;;;4949034;28;20426;-64
2024/01/29 08:33:32;;;;;;;32.83;18.17;;;2.60;71.70;;;;;;4955037;28;20023;-64
2024/01/29 08:35:58;;;;;;;37.70;19.58;;;2.70;71.60;;;;;;4955447;28;20035;-63
2024/01/29 08:38:24;;;;;;;31.17;17.77;;;2.80;71.50;;;;;;4954348;28;20094;-64
2024/01/29 08:40:50;;;;;;;35.10;17.50;;;2.90;71.40;;;;;;4949317;28;20090;-62
2024/01/29 08:43:16;;;;;;;28.15;16.63;;;3.00;71.40;;;;;;4953997;28;20734;-63
2024/01/29 08:45:43;;;;;;;27.85;16.45;;;3.10;71.30;;;;;;4861299;28;20125;-63
2024/01/29 08:48:09;;;;;;;27.02;16.45;;;3.20;71.10;;;;;;4937005;28;20095;-64
2024/01/29 08:50:35;;;;;;;26.77;17.10;;;3.40;71.00;;;;;;4950442;28;20090;-62
2024/01/29 08:53:01;;;;;;;25.35;15.75;;;3.50;70.80;;;;;;4956689;28;20023;-63
2024/01/29 08:55:27;;;;;;;23.95;14.05;;;3.60;70.80;;;;;;4950786;28;20031;-63
2024/01/29 08:57:52;;;;;;;26.60;14.50;;;3.60;70.60;;;;;;4960720;28;20113;-63
2024/01/29 09:00:18;;;;;;;24.40;13.57;;;3.80;70.40;;;;;;4962322;28;20110;-63
2024/01/29 09:02:45;;;;;;;26.20;13.23;;;3.90;70.10;;;;;;4951067;28;20027;-64
2024/01/29 09:05:11;;;;;;;29.27;14.43;;;3.90;69.80;;;;;;4956036;28;20121;-63
2024/01/29 09:07:36;;;;;;;21.33;13.20;;;4.00;70.40;;;;;;4947657;28;20426;-63
2024/01/29 09:10:03;;;;;;;18.35;12.13;;;4.10;69.70;;;;;;4948130;28;20669;-63
2024/01/29 09:12:28;;;;;;;25.77;12.95;;;4.20;69.60;;;;;;4950085;28;20028;-64
2024/01/29 09:14:54;;;;;;;23.88;13.07;;;4.30;69.40;;;;;;4953060;28;20497;-64
2024/01/29 09:17:20;;;;;;;22.10;13.38;;;4.40;69.20;;;;;;4948491;28;20038;-63
2024/01/29 09:19:45;;;;;;;21.60;13.45;;;4.40;69.00;;;;;;4959569;28;20058;-63
2024/01/29 09:22:14;;;;;;;20.73;13.55;;;4.50;68.80;;;;;;4951326;28;20120;-63
2024/01/29 09:24:40;;;;;;;20.35;12.55;;;4.60;68.60;;;;;;4946876;28;20045;-64
2024/01/29 09:27:06;;;;;;;19.88;12.88;;;4.70;68.60;;;;;;4953694;28;20094;-63
2024/01/29 09:29:32;;;;;;;25.40;12.98;;;4.80;68.50;;;;;;4959790;28;20082;-63
2024/01/29 09:31:57;;;;;;;22.52;12.98;;;4.90;68.40;;;;;;4952382;28;20026;-64
2024/01/29 09:34:24;;;;;;;21.88;13.80;;;4.90;68.30;;;;;;4948220;28;20042;-63
2024/01/29 09:36:50;;;;;;;21.10;13.05;;;5.00;68.30;;;;;;4954042;28;20058;-64
2024/01/29 09:39:18;;;;;;;19.90;12.45;;;5.10;68.20;;;;;;4950966;28;20075;-64
2024/01/29 09:41:45;;;;;;;19.45;12.73;;;5.20;68.10;;;;;;4951560;28;20023;-63
2024/01/29 09:44:10;;;;;;;21.83;13.40;;;5.30;68.00;;;;;;4958090;28;20481;-63
2024/01/29 09:46:40;;;;;;;23.40;13.68;;;5.30;67.80;;;;;;4865135;28;20042;-64
2024/01/29 09:49:07;;;;;;;20.20;12.65;;;5.40;67.70;;;;;;4948186;28;20046;-63
2024/01/29 09:51:34;;;;;;;18.30;12.32;;;5.50;67.70;;;;;;4947012;28;20039;-63
2024/01/29 09:54:01;;;;;;;18.10;12.15;;;5.60;67.60;;;;;;4949205;28;20020;-63
2024/01/29 09:56:27;;;;;;;62.65;44.28;;;5.60;67.50;;;;;;4949386;28;20063;-63
2024/01/29 09:58:54;;;;;;;22.98;16.58;;;5.70;67.50;;;;;;4947759;28;20063;-63
2024/01/29 10:01:21;;;;;;;23.95;14.68;;;5.70;67.40;;;;;;4942598;28;20035;-65
2024/01/29 10:03:47;;;;;;;22.40;13.68;;;5.80;67.30;;;;;;4946535;28;21428;-63
2024/01/29 10:06:13;;;;;;;18.73;12.93;;;5.90;67.40;;;;;;4948164;28;20073;-64
2024/01/29 10:08:39;;;;;;;22.20;12.80;;;6.00;67.50;;;;;;4947969;28;20078;-63
2024/01/29 10:11:05;;;;;;;19.15;12.77;;;6.10;67.30;;;;;;4948823;28;20478;-62
2024/01/29 10:13:31;;;;;;;21.33;13.32;;;6.20;67.00;;;;;;4947215;28;20032;-63
2024/01/29 10:15:57;;;;;;;20.60;12.43;;;6.30;67.00;;;;;;4954675;28;20030;-64
2024/01/29 10:18:23;;;;;;;18.23;11.40;;;6.40;67.00;;;;;;4930723;28;20028;-63
2024/01/29 10:21:08;;;;;;;89.00;52.33;;;6.40;66.80;;;;;;4948599;28;20034;-64
2024/01/29 10:23:34;;;;;;;29.80;20.23;;;6.60;66.30;;;;;;4951238;28;20062;-62
2024/01/29 10:26:00;;;;;;;46.20;32.90;;;6.70;66.70;;;;;;4956407;28;20580;-63
2024/01/29 10:28:27;;;;;;;25.35;18.10;;;6.80;66.60;;;;;;4955155;28;20083;-64
2024/01/29 10:30:56;;;;;;;22.35;14.98;;;6.90;66.50;;;;;;4950567;28;20035;-64
2024/01/29 10:33:25;;;;;;;19.77;13.60;;;6.90;66.80;;;;;;4948380;28;20063;-64
2024/01/29 10:35:50;;;;;;;23.75;13.93;;;7.10;66.10;;;;;;4947714;28;20031;-64
2024/01/29 10:38:22;;;;;;;20.60;13.15;;;7.10;66.20;;;;;;4946941;28;20054;-64
2024/01/29 10:40:49;;;;;;;19.95;13.23;;;7.20;65.90;;;;;;4951491;28;20030;-64
2024/01/29 10:43:19;;;;;;;19.25;12.55;;;7.30;66.10;;;;;;4949048;28;20031;-64
2024/01/29 10:45:49;;;;;;;19.00;12.63;;;7.40;65.70;;;;;;4945554;28;20045;-63
2024/01/29 10:48:22;;;;;;;20.60;13.82;;;7.40;65.60;;;;;;4955750;28;20026;-63
2024/01/29 10:50:50;;;;;;;19.23;12.80;;;7.40;65.10;;;;;;4952740;28;20026;-64
2024/01/29 10:53:16;;;;;;;50.75;23.20;;;7.50;65.30;;;;;;4954375;28;20033;-64
2024/01/29 10:55:44;;;;;;;25.70;16.23;;;7.50;65.20;;;;;;4951979;28;20024;-64
2024/01/29 10:58:15;;;;;;;41.20;24.98;;;7.50;65.40;;;;;;4961824;28;20030;-64
2024/01/29 11:00:41;;;;;;;31.48;19.15;;;7.60;65.70;;;;;;4952356;28;20031;-64
2024/01/29 11:03:09;;;;;;;27.02;15.38;;;7.70;65.90;;;;;;4958541;28;20038;-64
2024/01/29 11:05:36;;;;;;;25.33;14.10;;;7.80;65.80;;;;;;4957512;28;20051;-64
2024/01/29 11:08:05;;;;;;;25.65;14.52;;;7.90;66.50;;;;;;4954873;28;20050;-65
2024/01/29 11:10:33;;;;;;;21.00;12.85;;;8.00;65.60;;;;;;4951708;28;20118;-64
2024/01/29 11:13:01;;;;;;;22.52;13.57;;;8.10;65.50;;;;;;4955926;28;20641;-64
2024/01/29 11:15:26;;;;;;;19.70;13.10;;;8.20;65.40;;;;;;4950683;28;20478;-64
2024/01/29 11:17:55;;;;;;;21.95;13.18;;;8.30;65.20;;;;;;4952665;28;20035;-66
2024/01/29 11:20:22;;;;;;;21.40;12.90;;;8.40;65.10;;;;;;4950283;28;20031;-65
2024/01/29 11:22:53;;;;;;;24.08;13.77;;;8.60;64.80;;;;;;4961702;28;20061;-65
2024/01/29 11:25:20;;;;;;;21.23;13.85;;;8.60;64.80;;;;;;4953962;28;20067;-65
2024/01/29 11:27:47;;;;;;;20.75;13.02;;;8.70;64.60;;;;;;4936922;28;20071;-65
2024/01/29 11:30:20;;;;;;;26.80;13.52;;;8.80;64.50;;;;;;4954295;28;20803;-65
2024/01/29 11:32:49;;;;;;;24.10;13.27;;;8.80;64.30;;;;;;4952207;28;20488;-65
2024/01/29 11:35:18;;;;;;;75.70;54.55;;;8.90;64.20;;;;;;4959369;28;20023;-65
2024/01/29 11:37:44;;;;;;;27.38;19.65;;;9.00;64.10;;;;;;4949298;28;20046;-64
2024/01/29 11:40:30;;;;;;;23.02;15.13;;;9.10;64.10;;;;;;4952776;28;20035;-65
2024/01/29 11:42:56;;;;;;;22.33;14.52;;;9.20;63.40;;;;;;4952198;28;20735;-65
2024/01/29 11:45:23;;;;;;;21.23;13.70;;;9.20;63.80;;;;;;4954515;28;20102;-65
2024/01/29 11:47:50;;;;;;;20.48;13.52;;;9.30;63.70;;;;;;4955584;28;20178;-65
2024/01/29 11:50:16;;;;;;;19.35;12.35;;;9.40;63.80;;;;;;4953402;28;20027;-65
2024/01/29 11:52:41;;;;;;;21.13;13.80;;;9.40;63.70;;;;;;4951279;28;20030;-65
2024/01/29 11:55:07;;;;;;;18.65;12.45;;;9.50;63.50;;;;;;4958441;28;20034;-65
2024/01/29 11:57:33;;;;;;;19.98;13.20;;;9.60;63.60;;;;;;4952651;28;20125;-64
2024/01/29 12:00:02;;;;;;;17.55;11.35;;;9.60;63.40;;;;;;4950467;28;20078;-65
2024/01/29 12:02:28;;;;;;;20.35;12.52;;;9.70;63.30;;;;;;4954168;28;20035;-65
2024/01/29 12:04:58;;;;;;;17.85;13.10;;;9.80;63.40;;;;;;4956168;28;20049;-65
2024/01/29 12:07:23;;;;;;;22.63;13.23;;;9.80;63.20;;;;;;4945971;28;20039;-65
2024/01/29 12:09:49;;;;;;;20.63;13.57;;;9.90;63.10;;;;;;4949139;28;20435;-64
2024/01/29 12:12:15;;;;;;;20.98;13.95;;;9.90;63.00;;;;;;4955930;28;20078;-65
2024/01/29 12:14:40;;;;;;;20.52;13.15;;;10.00;62.90;;;;;;4948787;28;20023;-64
2024/01/29 12:17:06;;;;;;;22.95;13.55;;;10.00;62.90;;;;;;4949568;28;20090;-64
2024/01/29 12:19:33;;;;;;;22.33;13.23;;;10.10;63.00;;;;;;4951736;28;20031;-65
2024/01/29 12:21:59;;;;;;;23.70;15.02;;;10.10;62.60;;;;;;4931659;28;20066;-66
2024/01/29 12:24:26;;;;;;;21.55;14.32;;;10.20;62.50;;;;;;4950193;28;20067;-64
2024/01/29 12:26:52;;;;;;;21.52;13.10;;;10.30;62.60;;;;;;4951435;28;20027;-64
2024/01/29 12:29:19;;;;;;;21.13;13.73;;;10.30;62.80;;;;;;4948989;28;20027;-65
2024/01/29 12:31:45;;;;;;;19.73;13.40;;;10.40;62.70;;;;;;4952037;28;20194;-64